Time;durP1;ratioP1;P1;durP2;ratioP2;P2;SDS_P1;SDS_P2;PMS_P1;PMS_P2;Temp;Humidity;BMP_temperature;BMP_pressure;BME280_temperature;BME280_humidity;BME280_pressure;Samples;Min_cycle;Max_cycle;Signal;HPM_P1;HPM_P2
2023/02/04 00:01:46;;;;;;;13.30;4.80;;;10.20;99.90;;;;;;5035626;28;20175;-65
2023/02/04 00:04:12;;;;;;;11.20;4.27;;;10.20;99.90;;;;;;5052215;28;20257;-65
2023/02/04 00:06:38;;;;;;;17.10;5.13;;;10.20;99.90;;;;;;5039812;28;20669;-65
2023/02/04 00:09:05;;;;;;;10.60;4.00;;;10.20;99.90;;;;;;5050719;28;20535;-69
2023/02/04 00:11:31;;;;;;;8.13;3.83;;;10.20;99.90;;;;;;5050714;28;20464;-65
2023/02/04 00:13:56;;;;;;;14.70;4.87;;;10.10;99.90;;;;;;5053145;28;20416;-65
2023/02/04 00:16:22;;;;;;;18.10;3.93;;;10.10;99.90;;;;;;5052193;28;20418;-66
2023/02/04 00:18:48;;;;;;;13.63;4.93;;;10.10;99.90;;;;;;5051828;28;20542;-65
2023/02/04 00:21:13;;;;;;;13.40;4.90;;;10.20;99.90;;;;;;5034527;28;20215;-66
2023/02/04 00:23:40;;;;;;;12.83;4.43;;;10.20;99.90;;;;;;5052898;28;20175;-66
2023/02/04 00:26:06;;;;;;;9.33;4.57;;;10.20;99.90;;;;;;5034374;28;20174;-69
2023/02/04 00:28:32;;;;;;;13.80;4.80;;;10.20;99.90;;;;;;5051593;28;20498;-66
2023/02/04 00:30:58;;;;;;;11.00;4.20;;;10.20;99.90;;;;;;5041782;28;20439;-66
2023/02/04 00:33:24;;;;;;;14.90;4.37;;;10.30;99.90;;;;;;5041129;28;20429;-66
2023/02/04 00:35:49;;;;;;;13.60;5.47;;;10.30;99.90;;;;;;5052682;28;20262;-66
2023/02/04 00:38:15;;;;;;;9.00;4.40;;;10.30;99.90;;;;;;5038661;28;20663;-66
2023/02/04 00:40:41;;;;;;;18.37;5.40;;;10.30;99.90;;;;;;5031902;28;20311;-66
2023/02/04 00:43:06;;;;;;;12.03;4.00;;;10.20;99.90;;;;;;5032134;28;20532;-70
2023/02/04 00:45:32;;;;;;;12.60;4.60;;;10.20;99.90;;;;;;5032322;28;20185;-66
2023/02/04 00:47:58;;;;;;;13.23;4.03;;;10.20;99.90;;;;;;5041214;28;20197;-66
2023/02/04 00:50:23;;;;;;;12.30;4.20;;;10.20;99.90;;;;;;5051606;28;20198;-66
2023/02/04 00:52:49;;;;;;;12.90;4.90;;;10.20;99.90;;;;;;5034649;28;20620;-66
2023/02/04 00:55:17;;;;;;;11.80;4.50;;;10.20;99.90;;;;;;5051876;28;20174;-66
2023/02/04 00:57:45;;;;;;;12.97;5.00;;;10.20;99.90;;;;;;5051295;28;20190;-66
2023/02/04 01:00:13;;;;;;;20.63;4.90;;;10.20;99.90;;;;;;5050295;28;20437;-66
2023/02/04 01:02:39;;;;;;;10.43;4.40;;;10.20;99.90;;;;;;5052283;28;20502;-66
2023/02/04 01:05:06;;;;;;;12.10;4.80;;;10.20;99.90;;;;;;5051564;28;20564;-71
2023/02/04 01:07:32;;;;;;;15.10;5.27;;;10.20;99.90;;;;;;5050954;28;20428;-66
2023/02/04 01:09:57;;;;;;;8.50;4.20;;;10.10;99.90;;;;;;5052176;28;20481;-66
2023/02/04 01:12:26;;;;;;;17.07;4.80;;;10.20;99.90;;;;;;5033515;28;20194;-66
2023/02/04 01:14:52;;;;;;;10.30;5.37;;;10.10;99.90;;;;;;5034808;28;20174;-66
2023/02/04 01:17:18;;;;;;;16.57;6.17;;;10.10;99.90;;;;;;5049786;28;20439;-66
2023/02/04 01:19:44;;;;;;;16.60;4.87;;;10.20;99.90;;;;;;5050873;28;20433;-66
2023/02/04 01:22:10;;;;;;;11.70;5.37;;;10.20;99.90;;;;;;5051232;28;20727;-67
2023/02/04 01:24:36;;;;;;;13.20;5.20;;;10.20;99.90;;;;;;5052234;28;20180;-66
2023/02/04 01:27:01;;;;;;;12.13;5.00;;;10.20;99.90;;;;;;5049808;28;20441;-66
2023/02/04 01:29:27;;;;;;;15.97;5.60;;;10.20;99.90;;;;;;5049855;28;20271;-66
2023/02/04 01:31:53;;;;;;;14.53;5.00;;;10.30;99.90;;;;;;5050763;28;20438;-66
2023/02/04 01:34:18;;;;;;;13.53;4.50;;;10.30;99.90;;;;;;5047584;28;20284;-66
2023/02/04 01:36:44;;;;;;;19.20;5.60;;;10.20;99.90;;;;;;5031963;28;20178;-66
2023/02/04 01:39:10;;;;;;;10.57;4.90;;;10.30;99.90;;;;;;5046151;28;20186;-70
2023/02/04 01:41:35;;;;;;;12.10;4.80;;;10.30;99.90;;;;;;5051038;28;20304;-66
2023/02/04 01:44:01;;;;;;;12.73;4.80;;;10.30;99.90;;;;;;5034035;28;20192;-66
2023/02/04 01:46:27;;;;;;;14.40;4.90;;;10.30;99.90;;;;;;5051008;28;20361;-66
2023/02/04 01:48:53;;;;;;;14.87;5.10;;;10.30;99.90;;;;;;5050371;28;20207;-66
2023/02/04 01:51:25;;;;;;;17.23;5.10;;;10.30;99.90;;;;;;5016433;28;20271;-66
2023/02/04 01:53:51;;;;;;;15.17;4.90;;;10.30;99.90;;;;;;5052213;28;20521;-66
2023/02/04 01:56:19;;;;;;;16.37;4.77;;;10.30;99.90;;;;;;5024468;28;20432;-66
2023/02/04 01:58:46;;;;;;;9.17;4.77;;;10.30;99.90;;;;;;5048979;28;20187;-66
2023/02/04 02:01:14;;;;;;;15.47;5.20;;;10.30;99.90;;;;;;5054834;28;20805;-69
2023/02/04 02:03:40;;;;;;;10.87;4.83;;;10.30;99.90;;;;;;5055647;28;20422;-66
2023/02/04 02:06:09;;;;;;;11.30;5.63;;;10.40;99.90;;;;;;5055545;28;20422;-66
2023/02/04 02:08:37;;;;;;;16.27;6.00;;;10.30;99.90;;;;;;5053785;28;20429;-66
2023/02/04 02:11:03;;;;;;;18.90;4.80;;;10.30;99.90;;;;;;5054213;28;20526;-66
2023/02/04 02:13:29;;;;;;;16.07;4.87;;;10.40;99.90;;;;;;5054621;28;20473;-66
2023/02/04 02:15:55;;;;;;;13.93;4.93;;;10.40;99.90;;;;;;5045660;28;20464;-66
2023/02/04 02:18:22;;;;;;;9.87;5.03;;;10.40;99.90;;;;;;5044365;28;20213;-66
2023/02/04 02:20:47;;;;;;;14.33;5.60;;;10.40;99.90;;;;;;5046457;28;20745;-66
2023/02/04 02:23:45;;;;;;;19.90;6.17;;;10.40;99.90;;;;;;5034470;28;20448;-70
2023/02/04 02:26:12;;;;;;;13.90;4.40;;;10.40;99.90;;;;;;5054633;28;20262;-71
2023/02/04 02:28:37;;;;;;;19.97;4.80;;;10.40;99.90;;;;;;5053676;28;20445;-66
2023/02/04 02:31:03;;;;;;;15.30;4.87;;;10.40;99.90;;;;;;5055282;28;20902;-66
2023/02/04 02:33:29;;;;;;;9.73;4.90;;;10.40;99.90;;;;;;5054320;28;20909;-66
2023/02/04 02:35:55;;;;;;;11.63;4.90;;;10.40;99.90;;;;;;5054698;28;20675;-66
2023/02/04 02:38:20;;;;;;;16.53;5.53;;;10.40;99.90;;;;;;5052896;28;20192;-66
2023/02/04 02:40:47;;;;;;;12.63;5.07;;;10.40;99.90;;;;;;5054367;28;20228;-66
2023/02/04 02:43:20;;;;;;;13.83;5.37;;;10.40;99.90;;;;;;5053965;28;20704;-70
2023/02/04 02:45:47;;;;;;;13.90;4.60;;;10.40;99.90;;;;;;5054753;28;20893;-66
2023/02/04 02:48:13;;;;;;;14.00;5.83;;;10.40;99.90;;;;;;5047444;28;20429;-70
2023/02/04 02:50:39;;;;;;;14.87;5.03;;;10.40;99.90;;;;;;5034218;28;20449;-66
2023/02/04 02:53:13;;;;;;;17.83;4.47;;;10.40;99.90;;;;;;5043776;28;20499;-66
2023/02/04 02:55:40;;;;;;;16.20;4.13;;;10.40;99.90;;;;;;5034295;28;20940;-66
2023/02/04 02:58:21;;;;;;;16.03;4.80;;;10.40;99.90;;;;;;5033920;28;20454;-66
2023/02/04 03:00:47;;;;;;;15.60;5.40;;;10.40;99.90;;;;;;5034733;28;20429;-66
2023/02/04 03:03:18;;;;;;;13.70;4.83;;;10.40;99.90;;;;;;5034058;28;20451;-71
2023/02/04 03:05:48;;;;;;;16.47;5.00;;;10.30;99.90;;;;;;5017327;28;20407;-66
2023/02/04 03:08:15;;;;;;;13.63;4.60;;;10.30;99.90;;;;;;5040431;28;20442;-70
2023/02/04 03:10:42;;;;;;;8.20;4.87;;;10.30;99.90;;;;;;5053356;28;20492;-66
2023/02/04 03:13:09;;;;;;;19.53;5.20;;;10.30;99.90;;;;;;5054195;28;20426;-66
2023/02/04 03:15:36;;;;;;;11.53;4.87;;;10.30;99.90;;;;;;5052385;28;20432;-66
2023/02/04 03:18:02;;;;;;;11.33;4.83;;;10.30;99.90;;;;;;5031081;28;20507;-66
2023/02/04 03:20:30;;;;;;;11.57;4.40;;;10.30;99.90;;;;;;5032659;28;20443;-66
2023/02/04 03:22:56;;;;;;;9.97;4.80;;;10.40;99.90;;;;;;5034209;28;20448;-66
2023/02/04 03:25:25;;;;;;;16.73;6.00;;;10.50;99.90;;;;;;5033595;28;20485;-66
2023/02/04 03:27:53;;;;;;;17.50;5.23;;;10.40;99.90;;;;;;5016185;28;20432;-66
2023/02/04 03:30:20;;;;;;;10.20;4.50;;;10.40;99.90;;;;;;5037487;28;20475;-66
2023/02/04 03:32:45;;;;;;;13.83;4.97;;;10.40;99.90;;;;;;5053584;28;20903;-66
2023/02/04 03:35:11;;;;;;;10.87;4.33;;;10.40;99.90;;;;;;5035948;28;20436;-66
2023/02/04 03:37:38;;;;;;;11.37;4.93;;;10.40;99.90;;;;;;5051579;28;20189;-66
2023/02/04 03:40:04;;;;;;;15.47;5.17;;;10.40;99.90;;;;;;5053514;28;20438;-66
2023/02/04 03:42:30;;;;;;;15.87;4.87;;;10.30;99.90;;;;;;5049618;28;20937;-66
2023/02/04 03:44:55;;;;;;;10.03;5.00;;;10.30;99.90;;;;;;5033760;28;20425;-66
2023/02/04 03:47:21;;;;;;;12.53;5.53;;;10.30;99.90;;;;;;5032351;28;20177;-66
2023/02/04 03:49:47;;;;;;;16.90;5.23;;;10.30;99.90;;;;;;5033793;28;20261;-66
2023/02/04 03:52:12;;;;;;;13.50;4.80;;;10.30;99.90;;;;;;5033345;28;20179;-66
2023/02/04 03:54:38;;;;;;;15.57;5.67;;;10.30;99.90;;;;;;5015157;28;20262;-65
2023/02/04 03:57:04;;;;;;;17.90;6.40;;;10.30;99.90;;;;;;5033249;28;20177;-66
2023/02/04 03:59:30;;;;;;;16.57;5.50;;;10.30;99.90;;;;;;5048692;28;20437;-66
2023/02/04 04:01:55;;;;;;;13.10;4.70;;;10.30;99.90;;;;;;5035593;28;20189;-66
2023/02/04 04:04:21;;;;;;;17.37;5.70;;;10.30;99.90;;;;;;5033741;28;20185;-66
2023/02/04 04:06:47;;;;;;;17.33;9.53;;;10.30;99.90;;;;;;5052967;28;20182;-66
2023/02/04 04:09:13;;;;;;;16.67;6.63;;;10.30;99.90;;;;;;5051933;28;20211;-66
2023/02/04 04:11:38;;;;;;;13.87;5.80;;;10.30;99.90;;;;;;5052355;28;20499;-66
2023/02/04 04:14:04;;;;;;;15.60;5.40;;;10.30;99.90;;;;;;5053117;28;20621;-65
2023/02/04 04:16:30;;;;;;;19.77;5.67;;;10.30;99.90;;;;;;5040855;28;20184;-66
2023/02/04 04:18:56;;;;;;;16.37;4.93;;;10.40;99.90;;;;;;5044927;28;20728;-66
2023/02/04 04:21:21;;;;;;;15.90;5.63;;;10.40;99.90;;;;;;5052175;28;20181;-66
2023/02/04 04:23:47;;;;;;;26.47;8.20;;;10.30;99.90;;;;;;5035112;28;20184;-66
2023/02/04 04:26:13;;;;;;;11.57;4.70;;;10.30;99.90;;;;;;5052523;28;20203;-66
2023/02/04 04:28:38;;;;;;;15.43;5.50;;;10.30;99.90;;;;;;5050761;28;20655;-66
2023/02/04 04:31:04;;;;;;;14.47;5.17;;;10.30;99.90;;;;;;5052713;28;20542;-66
2023/02/04 04:33:30;;;;;;;14.13;4.73;;;10.30;99.90;;;;;;5051906;28;20180;-66
2023/02/04 04:35:56;;;;;;;11.93;4.87;;;10.30;99.90;;;;;;5051923;28;20425;-66
2023/02/04 04:38:21;;;;;;;14.43;5.30;;;10.30;99.90;;;;;;5028345;28;20265;-67
2023/02/04 04:40:47;;;;;;;19.47;5.53;;;10.30;99.90;;;;;;5040202;28;20357;-66
2023/02/04 04:43:13;;;;;;;15.60;5.73;;;10.30;99.90;;;;;;5047897;28;20193;-69
2023/02/04 04:45:38;;;;;;;10.23;5.50;;;10.30;99.90;;;;;;5034483;28;20183;-67
2023/02/04 04:48:04;;;;;;;14.53;5.57;;;10.30;99.90;;;;;;5036733;28;20581;-66
2023/02/04 04:50:30;;;;;;;20.67;6.43;;;10.20;99.90;;;;;;5050446;28;20211;-66
2023/02/04 04:52:56;;;;;;;11.20;5.50;;;10.30;99.90;;;;;;5052404;28;20183;-66
2023/02/04 04:55:21;;;;;;;13.60;5.40;;;10.30;99.90;;;;;;5049466;28;20184;-71
2023/02/04 04:57:47;;;;;;;12.10;5.00;;;10.20;99.90;;;;;;5051095;28;20550;-66
2023/02/04 05:00:20;;;;;;;16.00;4.70;;;10.30;99.90;;;;;;5052336;28;20189;-66
2023/02/04 05:02:46;;;;;;;17.37;6.00;;;10.30;99.90;;;;;;5052270;28;20178;-66
2023/02/04 05:05:13;;;;;;;12.47;5.20;;;10.20;99.90;;;;;;5051856;28;20421;-66
2023/02/04 05:07:38;;;;;;;16.17;5.43;;;10.20;99.90;;;;;;5050388;28;20435;-66
2023/02/04 05:10:05;;;;;;;10.17;5.60;;;10.20;99.90;;;;;;5051863;28;20486;-66
2023/02/04 05:12:31;;;;;;;16.87;5.70;;;10.20;99.90;;;;;;5029732;28;20437;-66
2023/02/04 05:14:56;;;;;;;13.23;7.13;;;10.20;99.90;;;;;;5052605;28;20472;-66
2023/02/04 05:17:22;;;;;;;10.43;5.17;;;10.20;99.90;;;;;;5050033;28;20184;-70
2023/02/04 05:19:48;;;;;;;13.57;5.27;;;10.20;99.90;;;;;;5050756;28;20698;-66
2023/02/04 05:22:13;;;;;;;18.47;4.73;;;10.20;99.90;;;;;;5051900;28;20230;-66
2023/02/04 05:24:39;;;;;;;14.83;4.97;;;10.20;99.90;;;;;;5051286;28;20179;-66
2023/02/04 05:27:05;;;;;;;9.60;4.63;;;10.20;99.90;;;;;;5048260;28;20263;-66
2023/02/04 05:29:31;;;;;;;21.93;5.20;;;10.20;99.90;;;;;;5016160;28;20236;-70
2023/02/04 05:31:56;;;;;;;19.57;6.37;;;10.20;99.90;;;;;;5041484;28;20202;-66
2023/02/04 05:34:22;;;;;;;14.93;4.90;;;10.20;99.90;;;;;;5042005;28;20212;-71
2023/02/04 05:36:48;;;;;;;16.80;5.40;;;10.20;99.90;;;;;;5042130;28;20632;-66
2023/02/04 05:39:13;;;;;;;17.43;5.47;;;10.20;99.90;;;;;;5052619;28;20692;-66
2023/02/04 05:41:39;;;;;;;17.03;4.80;;;10.20;99.90;;;;;;5055385;28;20312;-66
2023/02/04 05:44:05;;;;;;;15.23;4.60;;;10.20;99.90;;;;;;5055989;28;20577;-66
2023/02/04 05:46:31;;;;;;;12.67;4.57;;;10.20;99.90;;;;;;5050698;28;20176;-66
2023/02/04 05:48:57;;;;;;;14.53;5.20;;;10.10;99.90;;;;;;5038061;28;20324;-66
2023/02/04 05:51:22;;;;;;;15.70;5.80;;;10.20;99.90;;;;;;5055438;28;20452;-71
2023/02/04 05:53:48;;;;;;;15.77;5.40;;;10.10;99.90;;;;;;5055248;28;20169;-66
2023/02/04 05:56:17;;;;;;;10.47;5.00;;;10.20;99.90;;;;;;5054650;28;20175;-66
2023/02/04 05:58:43;;;;;;;13.97;5.23;;;10.20;99.90;;;;;;5054921;28;20172;-65
2023/02/04 06:01:09;;;;;;;12.30;4.97;;;10.20;99.90;;;;;;5055380;28;20403;-66
2023/02/04 06:03:34;;;;;;;15.73;5.20;;;10.20;99.90;;;;;;5054808;28;20171;-66
2023/02/04 06:06:00;;;;;;;16.63;4.80;;;10.20;99.90;;;;;;5054784;28;20421;-69
2023/02/04 06:08:26;;;;;;;11.43;5.23;;;10.30;99.90;;;;;;5051328;28;20192;-71
2023/02/04 06:10:51;;;;;;;14.23;5.27;;;10.20;99.90;;;;;;5047706;28;20304;-66
2023/02/04 06:13:17;;;;;;;12.43;4.67;;;10.30;99.90;;;;;;5017915;28;20209;-67
2023/02/04 06:15:43;;;;;;;15.07;5.30;;;10.30;99.90;;;;;;5017018;28;20262;-66
2023/02/04 06:18:09;;;;;;;13.63;5.10;;;10.20;99.90;;;;;;5051844;28;20262;-66
2023/02/04 06:20:34;;;;;;;14.33;4.80;;;10.20;99.90;;;;;;5054460;28;20186;-66
2023/02/04 06:23:00;;;;;;;11.53;5.03;;;10.20;99.90;;;;;;5055205;28;20418;-66
2023/02/04 06:25:26;;;;;;;14.87;5.83;;;10.20;99.90;;;;;;5054604;28;20656;-70
2023/02/04 06:27:51;;;;;;;18.37;5.33;;;10.20;99.90;;;;;;5049353;28;20238;-66
2023/02/04 06:30:18;;;;;;;17.70;5.40;;;10.10;99.90;;;;;;5054889;28;20213;-66
2023/02/04 06:32:43;;;;;;;13.50;4.80;;;10.10;99.90;;;;;;5052171;28;20674;-69
2023/02/04 06:35:11;;;;;;;18.93;6.10;;;10.20;99.90;;;;;;5039219;28;20567;-66
2023/02/04 06:37:38;;;;;;;9.87;5.20;;;10.10;99.90;;;;;;5039283;28;20203;-66
2023/02/04 06:40:05;;;;;;;15.27;5.10;;;10.10;99.90;;;;;;5045850;28;20435;-65
2023/02/04 06:42:31;;;;;;;23.20;5.80;;;10.10;99.90;;;;;;5054451;28;20893;-65
2023/02/04 06:44:57;;;;;;;14.03;4.60;;;10.20;99.90;;;;;;5055008;28;20417;-65
2023/02/04 06:47:22;;;;;;;16.57;5.80;;;10.20;99.90;;;;;;5045062;28;20428;-65
2023/02/04 06:49:48;;;;;;;14.17;4.93;;;10.10;99.90;;;;;;5041270;28;20254;-65
2023/02/04 06:52:13;;;;;;;16.67;5.30;;;10.10;99.90;;;;;;5054781;28;20195;-65
2023/02/04 06:54:39;;;;;;;18.53;5.20;;;10.10;99.90;;;;;;5047106;28;20222;-65
2023/02/04 06:57:08;;;;;;;13.23;5.30;;;10.10;99.90;;;;;;5043137;28;20179;-65
2023/02/04 06:59:38;;;;;;;14.83;5.17;;;10.10;99.90;;;;;;5052167;28;20183;-65
2023/02/04 07:02:06;;;;;;;14.67;5.30;;;10.10;99.90;;;;;;5053527;28;20426;-65
2023/02/04 07:04:33;;;;;;;13.53;5.40;;;10.00;99.90;;;;;;5052707;28;20943;-65
2023/02/04 07:06:59;;;;;;;14.87;5.07;;;10.10;99.90;;;;;;5052811;28;20428;-65
2023/02/04 07:09:25;;;;;;;12.27;4.50;;;10.10;99.90;;;;;;5052322;28;20829;-65
2023/02/04 07:11:50;;;;;;;19.67;5.53;;;10.00;99.90;;;;;;5038483;28;20813;-66
2023/02/04 07:14:17;;;;;;;14.40;6.10;;;10.20;99.90;;;;;;5043319;28;20439;-65
2023/02/04 07:16:43;;;;;;;14.23;5.47;;;10.10;99.90;;;;;;5035600;28;20220;-66
2023/02/04 07:19:09;;;;;;;18.30;5.23;;;10.10;99.90;;;;;;5040365;28;20895;-65
2023/02/04 07:21:34;;;;;;;19.03;6.53;;;10.10;99.90;;;;;;5053634;28;20174;-66
2023/02/04 07:24:00;;;;;;;17.03;6.83;;;10.10;99.90;;;;;;5038915;28;20183;-67
2023/02/04 07:26:26;;;;;;;14.33;4.67;;;10.10;99.90;;;;;;5039940;28;20188;-67
2023/02/04 07:28:51;;;;;;;14.10;5.30;;;10.10;99.90;;;;;;5040497;28;20191;-65
2023/02/04 07:31:17;;;;;;;17.70;6.70;;;10.20;99.90;;;;;;5034708;28;20646;-65
2023/02/04 07:33:43;;;;;;;21.77;5.90;;;10.10;99.90;;;;;;5033815;28;20184;-65
2023/02/04 07:36:09;;;;;;;18.77;5.97;;;10.10;99.90;;;;;;5034414;28;20183;-65
2023/02/04 07:38:34;;;;;;;16.77;5.07;;;10.20;99.90;;;;;;5039712;28;20262;-65
2023/02/04 07:41:00;;;;;;;13.60;4.97;;;10.10;99.90;;;;;;5036700;28;20225;-65
2023/02/04 07:43:26;;;;;;;13.30;5.30;;;10.10;99.90;;;;;;5043024;28;20186;-66
2023/02/04 07:45:51;;;;;;;7.97;4.43;;;10.10;99.90;;;;;;5038756;28;20325;-67
2023/02/04 07:48:17;;;;;;;11.93;5.67;;;10.20;99.90;;;;;;5036044;28;20546;-67
2023/02/04 07:50:43;;;;;;;15.23;4.80;;;10.20;99.90;;;;;;5037366;28;20203;-66
2023/02/04 07:53:08;;;;;;;11.20;5.20;;;10.20;99.90;;;;;;5047039;28;20192;-67
2023/02/04 07:55:34;;;;;;;13.63;5.40;;;10.20;99.90;;;;;;5068054;28;20188;-66
2023/02/04 07:58:00;;;;;;;16.07;5.90;;;10.20;99.90;;;;;;5053300;28;20288;-67
2023/02/04 08:00:26;;;;;;;12.20;6.13;;;10.30;99.90;;;;;;5045711;28;20663;-66
2023/02/04 08:02:51;;;;;;;14.57;6.63;;;10.30;99.90;;;;;;5044651;28;20187;-66
2023/02/04 08:05:17;;;;;;;14.80;5.47;;;10.30;99.90;;;;;;5043546;28;20186;-67
2023/02/04 08:07:43;;;;;;;14.70;5.50;;;10.30;99.90;;;;;;5051276;28;20309;-66
2023/02/04 08:10:10;;;;;;;10.70;5.00;;;10.30;99.90;;;;;;5044694;28;20210;-66
2023/02/04 08:12:36;;;;;;;15.60;5.13;;;10.30;99.90;;;;;;5039103;28;21009;-66
2023/02/04 08:15:02;;;;;;;12.33;5.53;;;10.30;99.90;;;;;;5026941;28;20454;-68
2023/02/04 08:17:28;;;;;;;18.17;5.17;;;10.30;99.90;;;;;;5036075;28;20455;-66
2023/02/04 08:19:54;;;;;;;15.30;5.50;;;10.30;99.90;;;;;;5046506;28;20505;-66
2023/02/04 08:22:19;;;;;;;16.00;5.53;;;10.30;99.90;;;;;;5041686;28;20255;-66
2023/02/04 08:24:45;;;;;;;17.63;5.33;;;10.40;99.90;;;;;;5045647;28;20264;-65
2023/02/04 08:27:11;;;;;;;10.33;4.93;;;10.40;99.90;;;;;;5024941;28;20187;-68
2023/02/04 08:29:36;;;;;;;16.00;6.00;;;10.40;99.90;;;;;;5035529;28;20207;-68
2023/02/04 08:32:03;;;;;;;10.07;5.33;;;10.40;99.90;;;;;;5036651;28;20185;-66
2023/02/04 08:34:29;;;;;;;16.73;6.00;;;10.50;99.90;;;;;;5044058;28;20233;-66
2023/02/04 08:36:55;;;;;;;10.40;5.90;;;10.50;99.90;;;;;;5051956;28;20422;-67
2023/02/04 08:39:20;;;;;;;12.83;5.90;;;10.50;99.90;;;;;;5035000;28;20418;-66
2023/02/04 08:41:48;;;;;;;17.53;5.07;;;10.60;99.90;;;;;;5052749;28;20229;-66
2023/02/04 08:44:14;;;;;;;14.97;5.70;;;10.50;99.90;;;;;;5051713;28;20186;-66
2023/02/04 08:46:40;;;;;;;15.97;5.50;;;10.50;99.90;;;;;;5052270;28;20477;-65
2023/02/04 08:49:05;;;;;;;22.00;6.30;;;10.50;99.90;;;;;;5052502;28;20461;-65
2023/02/04 08:51:31;;;;;;;15.07;6.27;;;10.50;99.90;;;;;;5052344;28;20253;-65
2023/02/04 08:53:57;;;;;;;13.93;5.90;;;10.60;99.90;;;;;;5042638;28;20237;-65
2023/02/04 08:56:23;;;;;;;13.60;6.10;;;10.50;99.90;;;;;;5036166;28;20443;-65
2023/02/04 08:58:49;;;;;;;22.03;6.70;;;10.50;99.90;;;;;;5051907;28;20177;-65
2023/02/04 09:01:15;;;;;;;17.10;6.83;;;10.50;99.90;;;;;;5034945;28;20506;-66
2023/02/04 09:03:41;;;;;;;20.07;6.90;;;10.60;99.90;;;;;;5029786;28;20524;-65
2023/02/04 09:06:07;;;;;;;16.67;5.57;;;10.60;99.90;;;;;;5050898;28;20219;-65
2023/02/04 09:08:33;;;;;;;10.30;6.27;;;10.60;99.90;;;;;;5052018;28;20171;-66
2023/02/04 09:10:59;;;;;;;17.20;7.13;;;10.70;99.90;;;;;;5051277;28;20484;-65
2023/02/04 09:13:24;;;;;;;23.07;6.20;;;10.70;99.90;;;;;;5051342;28;22737;-66
2023/02/04 09:15:51;;;;;;;10.87;6.50;;;10.70;99.90;;;;;;5003300;28;20184;-66
2023/02/04 09:18:20;;;;;;;27.60;7.70;;;10.80;99.90;;;;;;5032549;28;20200;-66
2023/02/04 09:20:50;;;;;;;18.77;6.70;;;10.80;99.90;;;;;;5013466;28;20418;-66
2023/02/04 09:23:16;;;;;;;15.67;6.07;;;10.90;99.90;;;;;;5033014;28;20423;-67
2023/02/04 09:25:43;;;;;;;20.00;7.20;;;10.90;99.90;;;;;;5015861;28;20439;-67
2023/02/04 09:28:10;;;;;;;20.10;7.50;;;10.90;99.90;;;;;;5047107;28;20430;-67
2023/02/04 09:30:38;;;;;;;21.90;7.27;;;11.00;99.90;;;;;;5010804;28;20593;-70
2023/02/04 09:33:03;;;;;;;20.03;7.10;;;11.00;99.90;;;;;;5028836;28;20435;-68
2023/02/04 09:35:29;;;;;;;21.20;7.77;;;11.00;99.90;;;;;;5046904;28;20436;-67
2023/02/04 09:37:55;;;;;;;26.33;7.23;;;11.00;99.90;;;;;;5038666;28;20184;-67
2023/02/04 09:40:21;;;;;;;22.00;7.07;;;11.00;99.90;;;;;;5043534;28;20247;-67
2023/02/04 09:42:51;;;;;;;17.67;7.83;;;11.10;99.90;;;;;;5038443;28;20186;-67
2023/02/04 09:45:23;;;;;;;15.43;6.93;;;11.10;99.90;;;;;;5044096;28;20436;-67
2023/02/04 09:47:50;;;;;;;25.23;8.23;;;11.10;99.90;;;;;;5003179;28;20448;-65
2023/02/04 09:50:19;;;;;;;23.03;8.23;;;11.20;99.90;;;;;;5043742;28;20545;-65
2023/02/04 09:52:50;;;;;;;18.80;7.60;;;11.10;99.90;;;;;;5040062;28;20543;-66
2023/02/04 09:55:18;;;;;;;18.10;7.30;;;11.10;99.90;;;;;;5033155;28;20470;-65
2023/02/04 09:57:45;;;;;;;17.53;8.40;;;11.10;99.90;;;;;;5024466;28;20444;-66
2023/02/04 10:00:20;;;;;;;28.00;9.27;;;11.20;99.90;;;;;;5037005;28;20788;-66
2023/02/04 10:02:46;;;;;;;23.23;8.33;;;11.20;99.90;;;;;;5005242;28;20443;-67
2023/02/04 10:05:15;;;;;;;15.80;7.37;;;11.30;99.90;;;;;;5033024;28;20420;-66
2023/02/04 10:07:42;;;;;;;18.80;8.07;;;11.30;99.90;;;;;;5031196;28;20948;-66
2023/02/04 10:10:19;;;;;;;14.93;7.57;;;11.40;99.90;;;;;;5030284;28;20515;-68
2023/02/04 10:12:47;;;;;;;23.20;8.33;;;11.50;99.90;;;;;;5030424;28;20490;-66
2023/02/04 10:15:21;;;;;;;22.73;8.47;;;11.60;99.90;;;;;;5036041;28;20452;-66
2023/02/04 10:17:49;;;;;;;19.30;9.90;;;11.70;99.90;;;;;;5032394;28;20507;-67
2023/02/04 10:20:17;;;;;;;18.47;8.40;;;11.80;99.90;;;;;;5034667;28;20431;-67
2023/02/04 10:22:44;;;;;;;15.73;7.17;;;11.90;99.90;;;;;;5072310;28;20422;-67
2023/02/04 10:25:19;;;;;;;17.43;8.03;;;11.90;99.90;;;;;;5060097;28;20429;-65
2023/02/04 10:27:54;;;;;;;16.70;6.97;;;12.00;99.90;;;;;;5054738;28;20761;-67
2023/02/04 10:30:46;;;;;;;17.43;7.80;;;12.00;99.90;;;;;;5055457;28;20480;-67
2023/02/04 10:33:25;;;;;;;15.07;6.67;;;12.00;99.90;;;;;;5050594;28;20790;-67
2023/02/04 10:35:57;;;;;;;274.17;169.83;;;12.00;99.90;;;;;;5044901;28;20460;-67
2023/02/04 10:38:23;;;;;;;71.17;40.87;;;12.00;99.90;;;;;;5052177;28;20519;-66
2023/02/04 10:41:03;;;;;;;66.47;36.40;;;12.00;99.90;;;;;;5054375;28;20554;-66
2023/02/04 10:43:28;;;;;;;19.07;8.40;;;12.00;99.90;;;;;;5055603;28;20419;-66
2023/02/04 10:46:01;;;;;;;13.70;7.50;;;12.10;99.90;;;;;;5035506;28;20424;-66
2023/02/04 10:48:28;;;;;;;22.30;7.90;;;12.10;99.90;;;;;;5054903;28;20178;-66
2023/02/04 10:50:57;;;;;;;15.47;6.90;;;12.10;99.90;;;;;;5054185;28;20509;-67
2023/02/04 10:56:16;;;;;;;20.93;9.60;;;12.10;99.90;;;;;;5048969;28;20849;-67
2023/02/04 10:58:42;;;;;;;17.00;7.40;;;12.10;99.90;;;;;;5054157;28;20381;-65
2023/02/04 11:01:10;;;;;;;21.37;8.60;;;12.10;99.90;;;;;;5036812;28;20538;-66
2023/02/04 11:03:38;;;;;;;22.47;7.13;;;12.10;99.90;;;;;;5049872;28;20644;-66
2023/02/04 11:06:16;;;;;;;22.27;8.90;;;12.10;99.90;;;;;;5057565;28;20435;-66
2023/02/04 11:08:42;;;;;;;23.00;8.87;;;12.10;99.90;;;;;;5061046;28;20449;-66
2023/02/04 11:11:15;;;;;;;20.63;8.60;;;12.20;99.90;;;;;;5017052;28;20504;-66
2023/02/04 11:13:48;;;;;;;18.83;9.00;;;12.20;99.90;;;;;;5018738;28;20441;-66
2023/02/04 11:16:16;;;;;;;21.07;9.00;;;12.20;99.90;;;;;;5054750;28;20400;-66
2023/02/04 11:18:53;;;;;;;24.67;9.20;;;12.20;99.90;;;;;;5054093;28;20422;-66
2023/02/04 11:21:31;;;;;;;15.63;8.63;;;12.30;99.90;;;;;;5054672;28;20428;-65
2023/02/04 11:24:18;;;;;;;19.33;8.90;;;12.30;99.90;;;;;;5066471;28;20426;-67
2023/02/04 11:26:49;;;;;;;20.00;8.67;;;12.40;99.90;;;;;;5035348;28;20432;-65
2023/02/04 11:29:15;;;;;;;19.50;8.13;;;12.40;99.90;;;;;;5053375;28;20447;-65
2023/02/04 11:31:46;;;;;;;18.33;9.43;;;12.40;99.90;;;;;;5053832;28;20487;-65
2023/02/04 11:34:15;;;;;;;21.80;9.83;;;12.40;99.90;;;;;;5053171;28;20182;-65
2023/02/04 11:37:00;;;;;;;17.27;8.63;;;12.40;99.90;;;;;;5035960;28;20439;-67
2023/02/04 11:39:41;;;;;;;14.93;7.87;;;12.50;99.90;;;;;;5053844;28;20823;-65
2023/02/04 11:42:31;;;;;;;15.73;7.13;;;12.50;99.90;;;;;;5052318;28;20546;-66
2023/02/04 11:45:07;;;;;;;16.03;8.20;;;12.50;99.90;;;;;;5015484;28;20533;-65
2023/02/04 11:47:35;;;;;;;16.60;8.53;;;12.60;99.90;;;;;;5016541;28;20416;-66
2023/02/04 11:50:14;;;;;;;15.40;8.30;;;12.60;99.90;;;;;;5033330;28;20809;-67
2023/02/04 11:52:40;;;;;;;13.33;8.50;;;12.60;99.90;;;;;;5035415;28;20466;-67
2023/02/04 11:55:10;;;;;;;20.67;8.10;;;12.60;99.90;;;;;;5052495;28;20425;-66
2023/02/04 11:57:43;;;;;;;16.63;7.80;;;12.60;99.90;;;;;;5053894;28;20248;-64
2023/02/04 12:00:13;;;;;;;13.87;8.57;;;12.60;99.90;;;;;;5031964;28;20429;-66
2023/02/04 12:03:10;;;;;;;19.13;8.50;;;12.50;99.90;;;;;;5016132;28;20440;-66
2023/02/04 12:05:36;;;;;;;15.60;7.23;;;12.50;99.90;;;;;;5051708;28;20436;-66
2023/02/04 12:08:32;;;;;;;21.13;8.97;;;12.50;99.90;;;;;;5035006;28;20466;-66
2023/02/04 12:11:13;;;;;;;18.47;7.40;;;12.40;99.90;;;;;;5032202;28;20221;-71
2023/02/04 12:13:52;;;;;;;18.50;8.87;;;12.40;99.90;;;;;;5031222;28;20443;-65
2023/02/04 12:16:17;;;;;;;17.70;7.13;;;12.30;99.90;;;;;;5046342;28;20431;-66
2023/02/04 12:18:43;;;;;;;286.50;167.00;;;12.40;99.90;;;;;;5053111;28;20758;-67
2023/02/04 12:21:09;;;;;;;55.37;34.83;;;12.40;99.90;;;;;;5053242;28;20460;-66
2023/02/04 12:23:35;;;;;;;22.70;9.93;;;12.40;99.90;;;;;;5052980;28;20228;-66
2023/02/04 12:26:01;;;;;;;14.83;7.80;;;12.40;99.90;;;;;;5051132;28;20928;-66
2023/02/04 12:28:27;;;;;;;14.57;8.20;;;12.40;99.90;;;;;;5053247;28;20287;-65
2023/02/04 12:30:54;;;;;;;19.90;8.33;;;12.40;99.90;;;;;;5034364;28;20211;-70
2023/02/04 12:33:21;;;;;;;17.13;7.70;;;12.40;99.90;;;;;;5024967;28;20433;-74
2023/02/04 12:35:47;;;;;;;22.33;7.60;;;12.50;99.90;;;;;;5027156;28;20422;-71
2023/02/04 12:38:13;;;;;;;14.83;6.93;;;12.40;99.90;;;;;;5032612;28;20440;-71
2023/02/04 12:40:39;;;;;;;13.53;7.60;;;12.40;99.90;;;;;;5032316;28;20461;-71
2023/02/04 12:43:05;;;;;;;9.63;6.20;;;12.40;99.90;;;;;;5032437;28;20498;-70